createdAt,value
2023-08-17T00:01:39.152Z,2.20
2023-08-17T00:04:05.837Z,2.58
2023-08-17T00:06:34.152Z,3.67
2023-08-17T00:09:00.813Z,2.95
2023-08-17T00:11:27.386Z,7.05
2023-08-17T00:13:53.904Z,4.35
2023-08-17T00:16:20.458Z,2.72
2023-08-17T00:18:47.017Z,6.65
2023-08-17T00:21:13.597Z,2.08
2023-08-17T00:23:41.604Z,5.32
2023-08-17T00:26:08.873Z,5.28
2023-08-17T00:28:35.418Z,5.90
2023-08-17T00:31:02.796Z,5.25
2023-08-17T00:33:29.602Z,2.78
2023-08-17T00:35:56.142Z,5.38
2023-08-17T00:38:22.752Z,4.22
2023-08-17T00:40:51.045Z,2.65
2023-08-17T00:43:17.561Z,2.10
2023-08-17T00:45:46.477Z,2.60
2023-08-17T00:48:13.640Z,3.17
2023-08-17T00:50:41.808Z,2.40
2023-08-17T00:53:09.564Z,2.90
2023-08-17T00:55:36.142Z,2.00
2023-08-17T00:58:04.653Z,8.35
2023-08-17T01:00:32.431Z,4.07
2023-08-17T01:02:59.168Z,4.13
2023-08-17T01:05:25.856Z,4.88
2023-08-17T01:07:52.362Z,3.95
2023-08-17T01:10:19.224Z,5.07
2023-08-17T01:12:54.521Z,4.22
2023-08-17T01:15:28.451Z,2.22
2023-08-17T01:17:59.272Z,4.05
2023-08-17T01:20:27.052Z,2.63
2023-08-17T01:22:56.986Z,3.20
2023-08-17T01:25:25.124Z,3.40
2023-08-17T01:27:51.697Z,3.47
2023-08-17T01:30:19.622Z,4.57
2023-08-17T01:32:52.182Z,5.80
2023-08-17T01:35:26.856Z,3.22
2023-08-17T01:37:56.151Z,4.50
2023-08-17T01:40:23.820Z,2.20
2023-08-17T01:42:52.776Z,2.95
2023-08-17T01:45:19.585Z,3.75
2023-08-17T01:47:46.133Z,3.70
2023-08-17T01:50:12.728Z,3.38
2023-08-17T01:52:39.522Z,4.13
2023-08-17T01:55:06.695Z,3.40
2023-08-17T01:57:33.244Z,3.22
2023-08-17T02:00:01.372Z,5.93
2023-08-17T02:02:27.944Z,2.78
2023-08-17T02:04:54.483Z,4.25
2023-08-17T02:07:21.023Z,3.95
2023-08-17T02:09:47.526Z,2.83
2023-08-17T02:12:14.091Z,1.73
2023-08-17T02:14:40.588Z,5.55
2023-08-17T02:17:08.475Z,3.58
2023-08-17T02:19:35.007Z,2.33
2023-08-17T02:22:03.662Z,3.50
2023-08-17T02:24:30.222Z,6.35
2023-08-17T02:26:56.806Z,7.25
2023-08-17T02:29:23.399Z,2.55
2023-08-17T02:31:49.949Z,3.55
2023-08-17T02:34:18.180Z,3.13
2023-08-17T02:36:44.718Z,4.20
2023-08-17T02:39:11.246Z,2.35
2023-08-17T02:41:37.824Z,2.97
2023-08-17T02:44:04.816Z,4.50
2023-08-17T02:46:31.639Z,3.67
2023-08-17T02:48:58.224Z,3.13
2023-08-17T02:51:26.167Z,4.15
2023-08-17T02:53:52.711Z,4.43
2023-08-17T02:56:19.257Z,3.10
2023-08-17T02:58:45.812Z,6.68
2023-08-17T03:01:12.342Z,3.97
2023-08-17T03:03:39.013Z,4.35
2023-08-17T03:06:06.058Z,4.05
2023-08-17T03:08:34.011Z,7.43
2023-08-17T03:11:00.755Z,2.60
2023-08-17T03:13:27.276Z,2.67
2023-08-17T03:15:55.129Z,4.22
2023-08-17T03:18:21.688Z,4.15
2023-08-17T03:20:48.266Z,5.88
2023-08-17T03:23:14.824Z,4.47
2023-08-17T03:25:42.711Z,2.40
2023-08-17T03:28:09.253Z,3.83
2023-08-17T03:30:35.859Z,6.75
2023-08-17T03:33:02.493Z,3.10
2023-08-17T03:35:29.175Z,4.45
2023-08-17T03:37:55.707Z,5.68
2023-08-17T03:40:22.265Z,4.25
2023-08-17T03:42:50.192Z,6.05
2023-08-17T03:45:16.865Z,2.67
2023-08-17T03:47:43.419Z,4.65
2023-08-17T03:50:10.623Z,3.47
2023-08-17T03:52:37.365Z,2.92
2023-08-17T03:55:04.235Z,4.60
2023-08-17T03:57:33.147Z,6.05
2023-08-17T04:00:02.120Z,4.53
2023-08-17T04:02:28.657Z,5.05
2023-08-17T04:04:55.347Z,3.72
2023-08-17T04:07:22.419Z,3.92
2023-08-17T04:09:49.134Z,5.68
2023-08-17T04:12:15.839Z,4.05
2023-08-17T04:14:42.388Z,3.35
2023-08-17T04:17:10.599Z,4.28
2023-08-17T04:19:37.144Z,3.40
2023-08-17T04:22:03.772Z,4.55
2023-08-17T04:24:30.536Z,4.13
2023-08-17T04:26:57.114Z,6.60
2023-08-17T04:29:23.889Z,3.88
2023-08-17T04:31:50.442Z,1.98
2023-08-17T04:34:18.405Z,4.15
2023-08-17T04:36:44.977Z,5.35
2023-08-17T04:39:11.499Z,6.78
2023-08-17T04:41:38.097Z,3.25
2023-08-17T04:44:05.259Z,3.10
2023-08-17T04:46:31.808Z,3.53
2023-08-17T04:48:58.369Z,4.38
2023-08-17T04:51:26.230Z,4.32
2023-08-17T04:53:52.767Z,6.68
2023-08-17T04:56:19.305Z,4.20
2023-08-17T04:58:45.874Z,8.65
2023-08-17T05:01:12.524Z,6.18
2023-08-17T05:03:39.366Z,5.80
2023-08-17T05:06:05.960Z,4.95
2023-08-17T05:08:33.896Z,4.32
2023-08-17T05:11:00.462Z,5.72
2023-08-17T05:13:27.027Z,4.13
2023-08-17T05:15:53.623Z,3.53
2023-08-17T05:18:20.228Z,3.53
2023-08-17T05:20:46.950Z,3.33
2023-08-17T05:23:13.643Z,4.10
2023-08-17T05:25:41.568Z,4.93
2023-08-17T05:28:08.171Z,4.97
2023-08-17T05:30:34.723Z,6.28
2023-08-17T05:33:01.313Z,6.70
2023-08-17T05:35:27.867Z,7.35
2023-08-17T05:37:54.402Z,6.40
2023-08-17T05:40:20.928Z,4.22
2023-08-17T05:42:48.986Z,5.75
2023-08-17T05:45:15.849Z,3.83
2023-08-17T05:47:42.498Z,4.85
2023-08-17T05:50:09.272Z,5.10
2023-08-17T05:52:35.798Z,5.43
2023-08-17T05:55:02.474Z,3.45
2023-08-17T05:57:29.229Z,6.03
2023-08-17T05:59:57.412Z,4.60
2023-08-17T06:02:24.146Z,6.32
2023-08-17T06:04:50.727Z,7.07
2023-08-17T06:07:17.316Z,5.97
2023-08-17T06:09:43.953Z,5.05
2023-08-17T06:12:10.524Z,5.07
2023-08-17T06:14:37.230Z,6.97
2023-08-17T06:17:05.215Z,5.07
2023-08-17T06:19:31.779Z,6.15
2023-08-17T06:21:58.343Z,5.60
2023-08-17T06:24:25.024Z,7.05
2023-08-17T06:26:51.705Z,6.50
2023-08-17T06:29:18.299Z,6.10
2023-08-17T06:31:44.943Z,4.50
2023-08-17T06:34:12.873Z,3.88
2023-08-17T06:36:39.708Z,6.57
2023-08-17T06:39:06.462Z,4.00
2023-08-17T06:41:33.054Z,3.95
2023-08-17T06:43:59.594Z,10.00
2023-08-17T06:46:26.380Z,8.02
2023-08-17T06:48:52.968Z,6.38
2023-08-17T06:51:21.046Z,5.35
2023-08-17T06:53:47.729Z,9.35
2023-08-17T06:56:14.445Z,7.22
2023-08-17T06:58:40.932Z,5.03
2023-08-17T07:01:07.486Z,5.25
2023-08-17T07:03:34.095Z,5.93
2023-08-17T07:06:00.711Z,6.95
2023-08-17T07:08:28.595Z,5.97
2023-08-17T07:10:55.161Z,7.55
2023-08-17T07:13:21.704Z,5.75
2023-08-17T07:15:48.273Z,5.97
2023-08-17T07:18:14.832Z,6.28
2023-08-17T07:20:41.345Z,7.93
2023-08-17T07:23:07.885Z,7.30
2023-08-17T07:25:35.921Z,7.63
2023-08-17T07:28:02.461Z,10.75
2023-08-17T07:30:29.103Z,9.32
2023-08-17T07:32:55.702Z,8.13
2023-08-17T07:35:22.319Z,7.25
2023-08-17T07:37:59.525Z,7.90
2023-08-17T07:40:30.522Z,7.57
2023-08-17T07:42:58.477Z,6.50
2023-08-17T07:45:25.101Z,8.43
2023-08-17T07:47:51.667Z,7.47
2023-08-17T07:50:18.301Z,9.18
2023-08-17T07:52:44.872Z,8.32
2023-08-17T07:55:11.486Z,7.00
2023-08-17T07:57:38.098Z,7.82
2023-08-17T08:00:07.445Z,7.88
2023-08-17T08:02:34.024Z,8.02
2023-08-17T08:05:00.673Z,9.13
2023-08-17T08:07:27.531Z,8.30
2023-08-17T08:09:54.368Z,9.40
2023-08-17T08:12:20.898Z,10.25
2023-08-17T08:14:47.461Z,9.63
2023-08-17T08:17:15.498Z,9.27
2023-08-17T08:19:42.060Z,7.25
2023-08-17T08:22:08.660Z,7.03
2023-08-17T08:24:37.888Z,8.38
2023-08-17T08:27:05.553Z,9.25
2023-08-17T08:29:32.099Z,7.38
2023-08-17T08:31:58.643Z,11.80
2023-08-17T08:34:26.709Z,14.23
2023-08-17T08:36:53.221Z,6.93
2023-08-17T08:39:19.829Z,11.85
2023-08-17T08:41:46.390Z,12.57
2023-08-17T08:44:13.181Z,9.05
2023-08-17T08:46:41.441Z,13.02
2023-08-17T08:49:12.064Z,6.70
2023-08-17T08:51:44.748Z,7.30
2023-08-17T08:54:14.644Z,14.02
2023-08-17T08:56:47.878Z,12.18
2023-08-17T08:59:16.107Z,8.93
2023-08-17T09:01:43.156Z,11.57
2023-08-17T09:04:09.829Z,12.35
2023-08-17T09:06:38.151Z,9.93
2023-08-17T09:09:08.214Z,10.48
2023-08-17T09:11:34.749Z,8.95
2023-08-17T09:14:01.428Z,14.45
2023-08-17T09:16:28.443Z,6.82
2023-08-17T09:18:55.040Z,9.98
2023-08-17T09:21:22.115Z,10.10
2023-08-17T09:23:51.997Z,9.18
2023-08-17T09:26:20.846Z,10.60
2023-08-17T09:28:47.408Z,6.50
2023-08-17T09:31:14.054Z,10.45
2023-08-17T09:33:45.343Z,12.45
2023-08-17T09:36:12.468Z,12.85
2023-08-17T09:38:39.174Z,8.38
2023-08-17T09:41:06.020Z,10.73
2023-08-17T09:43:34.613Z,5.93
2023-08-17T09:46:01.892Z,11.30
2023-08-17T09:48:32.847Z,8.23
2023-08-17T09:51:00.239Z,8.93
2023-08-17T09:53:26.956Z,14.75
2023-08-17T09:55:54.884Z,12.30
2023-08-17T09:58:21.480Z,9.15
2023-08-17T10:00:51.799Z,11.95
2023-08-17T10:03:20.353Z,12.35
2023-08-17T10:05:53.422Z,9.73
2023-08-17T10:08:22.658Z,10.40
2023-08-17T10:10:50.082Z,9.90
2023-08-17T10:13:25.531Z,10.57
2023-08-17T10:16:03.091Z,14.38
2023-08-17T10:18:45.949Z,13.80
2023-08-17T10:21:22.417Z,11.43
2023-08-17T10:23:49.590Z,11.73
2023-08-17T10:26:17.249Z,10.95
2023-08-17T10:28:45.430Z,13.07
2023-08-17T10:31:14.604Z,10.68
2023-08-17T10:33:41.709Z,14.18
2023-08-17T10:36:08.834Z,11.65
2023-08-17T10:38:35.373Z,18.73
2023-08-17T10:41:17.822Z,11.82
2023-08-17T10:43:55.489Z,13.25
2023-08-17T10:46:33.656Z,15.18
2023-08-17T10:49:03.761Z,15.10
2023-08-17T10:51:30.357Z,12.63
2023-08-17T10:53:59.833Z,13.55
2023-08-17T10:56:28.736Z,12.32
2023-08-17T10:58:55.303Z,13.93
2023-08-17T11:01:33.946Z,13.63
2023-08-17T11:04:10.543Z,14.25
2023-08-17T11:06:37.113Z,17.15
2023-08-17T11:09:07.933Z,14.35
2023-08-17T11:11:34.868Z,14.73
2023-08-17T11:14:01.464Z,14.70
2023-08-17T11:16:28.156Z,13.60
2023-08-17T11:18:56.120Z,14.93
2023-08-17T11:21:22.827Z,14.80
2023-08-17T11:23:49.453Z,15.27
2023-08-17T11:26:17.093Z,14.85
2023-08-17T11:28:43.937Z,14.38
2023-08-17T11:31:12.338Z,12.68
2023-08-17T11:33:40.219Z,13.98
2023-08-17T11:36:09.247Z,8.82
2023-08-17T11:38:37.763Z,10.90
2023-08-17T11:41:04.842Z,10.98
2023-08-17T11:43:33.616Z,10.70
2023-08-17T11:46:01.743Z,11.50
2023-08-17T11:48:29.077Z,10.68
2023-08-17T11:50:55.742Z,10.10
2023-08-17T11:53:23.734Z,14.45
2023-08-17T11:55:55.573Z,11.93
2023-08-17T11:58:37.337Z,8.75
2023-08-17T12:01:04.183Z,9.82
2023-08-17T12:03:30.868Z,9.82
2023-08-17T12:05:58.440Z,12.10
2023-08-17T12:08:26.624Z,10.65
2023-08-17T12:10:53.451Z,12.07
2023-08-17T12:13:20.115Z,13.77
2023-08-17T12:15:46.690Z,12.38
2023-08-17T12:18:13.232Z,11.93
2023-08-17T12:20:41.432Z,9.13
2023-08-17T12:23:09.195Z,12.00
2023-08-17T12:25:37.120Z,12.15
2023-08-17T12:28:04.265Z,11.20
2023-08-17T12:30:32.917Z,11.95
2023-08-17T12:32:59.527Z,11.00
2023-08-17T12:35:26.596Z,12.55
2023-08-17T12:37:55.223Z,15.52
2023-08-17T12:40:23.138Z,12.50
2023-08-17T12:42:51.299Z,14.77
2023-08-17T12:45:18.175Z,10.57
2023-08-17T12:47:44.764Z,14.73
2023-08-17T12:50:11.366Z,9.25
2023-08-17T12:52:38.024Z,11.63
2023-08-17T12:55:05.106Z,10.88
2023-08-17T12:57:31.853Z,13.30
2023-08-17T12:59:59.790Z,10.50
2023-08-17T13:02:26.619Z,9.65
2023-08-17T13:04:53.421Z,11.63
2023-08-17T13:07:19.983Z,11.95
2023-08-17T13:09:46.910Z,12.05
2023-08-17T13:12:13.585Z,12.00
2023-08-17T13:14:40.223Z,11.88
2023-08-17T13:17:08.560Z,9.80
2023-08-17T13:19:35.456Z,13.05
2023-08-17T13:22:02.207Z,14.90
2023-08-17T13:24:28.952Z,9.77
2023-08-17T13:26:55.523Z,9.85
2023-08-17T13:29:22.368Z,12.38
2023-08-17T13:31:49.121Z,10.63
2023-08-17T13:34:17.019Z,11.80
2023-08-17T13:36:43.688Z,13.40
2023-08-17T13:39:10.254Z,13.73
2023-08-17T13:41:36.861Z,15.50
2023-08-17T13:44:03.797Z,10.88
2023-08-17T13:46:30.716Z,10.10
2023-08-17T13:48:57.284Z,12.15
2023-08-17T13:51:25.206Z,15.48
2023-08-17T13:53:51.760Z,16.40
2023-08-17T13:56:18.417Z,11.98
2023-08-17T13:58:45.018Z,13.38
2023-08-17T14:01:11.638Z,13.13
2023-08-17T14:03:38.308Z,12.70
2023-08-17T14:06:05.036Z,16.63
2023-08-17T14:08:32.986Z,15.38
2023-08-17T14:10:59.609Z,17.52
2023-08-17T14:13:26.141Z,15.50
2023-08-17T14:15:52.949Z,15.75
2023-08-17T14:18:19.710Z,19.75
2023-08-17T14:20:46.241Z,13.63
2023-08-17T14:23:12.792Z,12.27
2023-08-17T14:25:40.711Z,10.68
2023-08-17T14:28:08.018Z,12.80
2023-08-17T14:30:34.969Z,12.50
2023-08-17T14:33:01.841Z,13.75
2023-08-17T14:35:28.808Z,12.77
2023-08-17T14:37:55.401Z,15.05
2023-08-17T14:40:22.091Z,14.57
2023-08-17T14:42:54.433Z,13.73
2023-08-17T14:45:21.315Z,13.43
2023-08-17T14:47:47.863Z,12.93
2023-08-17T14:50:14.426Z,16.05
2023-08-17T14:52:41.041Z,16.05
2023-08-17T14:55:08.496Z,16.30
2023-08-17T14:57:35.200Z,22.42
2023-08-17T15:00:03.909Z,13.60
2023-08-17T15:02:31.099Z,12.60
2023-08-17T15:04:57.692Z,15.70
2023-08-17T15:07:24.487Z,16.25
2023-08-17T15:09:51.361Z,17.77
2023-08-17T15:12:17.907Z,16.67
2023-08-17T15:14:44.443Z,13.93
2023-08-17T15:17:12.342Z,15.60
2023-08-17T15:19:41.045Z,17.25
2023-08-17T15:22:08.299Z,18.52
2023-08-17T15:24:34.975Z,18.77
2023-08-17T15:27:01.582Z,17.70
2023-08-17T15:29:28.204Z,19.35
2023-08-17T15:31:54.725Z,17.17
2023-08-17T15:34:23.001Z,16.40
2023-08-17T15:36:49.521Z,14.77
2023-08-17T15:39:16.042Z,17.02
2023-08-17T15:41:42.572Z,17.23
2023-08-17T15:44:09.591Z,21.48
2023-08-17T15:46:36.181Z,21.95
2023-08-17T15:49:02.870Z,18.70
2023-08-17T15:51:30.788Z,21.55
2023-08-17T15:53:57.296Z,23.30
2023-08-17T15:56:23.951Z,15.93
2023-08-17T15:58:50.720Z,21.33
2023-08-17T16:01:17.333Z,16.23
2023-08-17T16:03:45.745Z,18.08
2023-08-17T16:06:12.537Z,18.35
2023-08-17T16:08:48.740Z,15.93
2023-08-17T16:11:16.824Z,23.20
2023-08-17T16:13:46.653Z,20.00
2023-08-17T16:16:13.626Z,14.60
2023-08-17T16:18:40.408Z,15.40
2023-08-17T16:21:13.898Z,14.77
2023-08-17T16:23:42.535Z,18.52
2023-08-17T16:26:09.215Z,17.42
2023-08-17T16:28:35.790Z,17.58
2023-08-17T16:31:05.216Z,14.93
2023-08-17T16:33:32.433Z,16.30
2023-08-17T16:35:59.075Z,13.82
2023-08-17T16:38:25.660Z,17.27
2023-08-17T16:40:53.503Z,20.13
2023-08-17T16:43:19.996Z,17.75
2023-08-17T16:45:46.642Z,16.63
2023-08-17T16:48:13.281Z,18.58
2023-08-17T16:50:40.010Z,20.13
2023-08-17T16:53:06.808Z,18.63
2023-08-17T16:55:33.400Z,19.92
2023-08-17T16:58:01.395Z,17.42
2023-08-17T17:00:27.969Z,21.27
2023-08-17T17:02:54.553Z,15.68
2023-08-17T17:05:21.206Z,15.80
2023-08-17T17:07:47.752Z,16.13
2023-08-17T17:10:14.292Z,15.57
2023-08-17T17:12:40.844Z,18.20
2023-08-17T17:15:09.695Z,19.50
2023-08-17T17:17:36.260Z,21.52
2023-08-17T17:20:03.379Z,15.38
2023-08-17T17:22:29.988Z,18.77
2023-08-17T17:24:56.674Z,19.38
2023-08-17T17:27:23.254Z,18.38
2023-08-17T17:29:49.825Z,22.42
2023-08-17T17:32:17.738Z,15.35
2023-08-17T17:34:44.240Z,16.48
2023-08-17T17:37:10.831Z,17.58
2023-08-17T17:39:37.343Z,15.68
2023-08-17T17:42:04.224Z,16.92
2023-08-17T17:44:30.779Z,16.20
2023-08-17T17:46:57.471Z,16.77
2023-08-17T17:49:25.360Z,16.60
2023-08-17T17:51:51.905Z,18.20
2023-08-17T17:54:18.410Z,17.17
2023-08-17T17:56:45.688Z,16.30
2023-08-17T17:59:12.563Z,15.63
2023-08-17T18:01:39.190Z,17.17
2023-08-17T18:04:06.146Z,22.27
2023-08-17T18:06:35.290Z,19.15
2023-08-17T18:09:01.962Z,15.77
2023-08-17T18:11:28.488Z,18.05
2023-08-17T18:13:54.991Z,16.67
2023-08-17T18:16:21.700Z,16.70
2023-08-17T18:18:48.293Z,22.67
2023-08-17T18:21:14.870Z,18.23
2023-08-17T18:23:42.788Z,14.90
2023-08-17T18:26:09.414Z,18.15
2023-08-17T18:28:35.968Z,17.02
2023-08-17T18:31:02.544Z,15.02
2023-08-17T18:33:29.099Z,15.52
2023-08-17T18:35:55.783Z,17.77
2023-08-17T18:38:22.729Z,17.98
2023-08-17T18:40:52.385Z,17.63
2023-08-17T18:43:20.607Z,17.67
2023-08-17T18:45:47.171Z,21.38
2023-08-17T18:48:13.822Z,16.27
2023-08-17T18:50:40.463Z,18.80
2023-08-17T18:53:08.048Z,23.52
2023-08-17T18:55:34.657Z,17.48
2023-08-17T18:58:02.528Z,17.00
2023-08-17T19:00:29.167Z,17.08
2023-08-17T19:02:55.801Z,19.08
2023-08-17T19:05:22.617Z,17.50
2023-08-17T19:07:49.181Z,16.67
2023-08-17T19:10:16.621Z,18.17
2023-08-17T19:12:43.348Z,17.70
2023-08-17T19:15:11.552Z,18.17
2023-08-17T19:17:38.386Z,20.13
2023-08-17T19:20:06.546Z,18.73
2023-08-17T19:22:33.099Z,16.67
2023-08-17T19:25:00.825Z,19.42
2023-08-17T19:27:29.360Z,17.58
2023-08-17T19:29:56.243Z,15.27
2023-08-17T19:32:24.231Z,17.13
2023-08-17T19:34:50.739Z,17.88
2023-08-17T19:37:17.299Z,19.50
2023-08-17T19:39:43.864Z,16.40
2023-08-17T19:42:10.622Z,15.55
2023-08-17T19:44:37.158Z,19.58
2023-08-17T19:47:03.829Z,19.02
2023-08-17T19:49:31.717Z,16.15
2023-08-17T19:51:58.229Z,19.58
2023-08-17T19:54:24.749Z,17.83
2023-08-17T19:56:51.277Z,19.95
2023-08-17T19:59:18.264Z,18.02
2023-08-17T20:01:46.682Z,20.02
2023-08-17T20:04:13.286Z,15.15
2023-08-17T20:06:41.177Z,19.40
2023-08-17T20:09:08.214Z,17.95
2023-08-17T20:11:35.095Z,18.88
2023-08-17T20:14:01.693Z,17.90
2023-08-17T20:16:28.242Z,17.50
2023-08-17T20:18:54.904Z,17.85
2023-08-17T20:21:21.559Z,18.63
2023-08-17T20:23:49.566Z,19.90
2023-08-17T20:26:16.143Z,20.90
2023-08-17T20:28:42.680Z,17.77
2023-08-17T20:31:09.261Z,17.58
2023-08-17T20:33:35.843Z,20.65
2023-08-17T20:36:02.385Z,18.83
2023-08-17T20:38:29.021Z,21.58
2023-08-17T20:40:56.949Z,20.98
2023-08-17T20:43:23.540Z,22.75
2023-08-17T20:45:50.081Z,19.42
2023-08-17T20:48:16.668Z,18.73
2023-08-17T20:50:43.916Z,21.92
2023-08-17T20:53:10.923Z,22.85
2023-08-17T20:55:40.098Z,21.33
2023-08-17T20:58:08.513Z,19.05
2023-08-17T21:00:35.456Z,23.52
2023-08-17T21:03:02.420Z,22.23
2023-08-17T21:05:29.157Z,22.15
2023-08-17T21:07:56.017Z,19.65
2023-08-17T21:10:23.198Z,24.55
2023-08-17T21:12:49.911Z,25.10
2023-08-17T21:15:17.880Z,19.73
2023-08-17T21:17:45.401Z,21.58
2023-08-17T21:20:12.369Z,20.13
2023-08-17T21:22:47.550Z,22.63
2023-08-17T21:25:14.316Z,22.15
2023-08-17T21:27:40.869Z,22.00
2023-08-17T21:30:08.287Z,25.23
2023-08-17T21:32:36.229Z,21.35
2023-08-17T21:35:02.789Z,20.85
2023-08-17T21:37:29.761Z,21.70
2023-08-17T21:39:56.737Z,19.55
2023-08-17T21:42:23.252Z,22.10
2023-08-17T21:44:50.206Z,19.02
2023-08-17T21:47:17.108Z,21.35
2023-08-17T21:49:47.121Z,23.38
2023-08-17T21:52:13.818Z,22.58
2023-08-17T21:54:40.401Z,24.92
2023-08-17T21:57:06.934Z,18.23
2023-08-17T21:59:33.596Z,18.52
2023-08-17T22:02:00.247Z,19.63
2023-08-17T22:04:26.833Z,22.35
2023-08-17T22:06:54.729Z,19.10
2023-08-17T22:09:21.264Z,19.88
2023-08-17T22:11:47.794Z,16.90
2023-08-17T22:14:14.277Z,20.13
2023-08-17T22:16:40.833Z,20.63
2023-08-17T22:19:07.408Z,19.15
2023-08-17T22:21:33.974Z,21.52
2023-08-17T22:24:01.901Z,18.02
2023-08-17T22:26:28.467Z,18.70
2023-08-17T22:28:55.014Z,20.58
2023-08-17T22:31:21.621Z,19.83
2023-08-17T22:33:48.186Z,23.50
2023-08-17T22:36:14.690Z,19.30
2023-08-17T22:38:41.219Z,19.42
2023-08-17T22:41:09.212Z,17.13
2023-08-17T22:43:35.787Z,18.35
2023-08-17T22:46:03.407Z,17.52
2023-08-17T22:48:30.027Z,15.75
2023-08-17T22:50:56.546Z,15.65
2023-08-17T22:53:23.145Z,17.58
2023-08-17T22:55:49.898Z,21.35
2023-08-17T22:58:17.930Z,17.67
2023-08-17T23:00:44.556Z,17.83
2023-08-17T23:03:11.240Z,17.80
2023-08-17T23:05:37.813Z,23.33
2023-08-17T23:08:04.840Z,18.35
2023-08-17T23:10:31.432Z,20.95
2023-08-17T23:12:58.028Z,18.00
2023-08-17T23:15:26.134Z,18.83
2023-08-17T23:17:52.708Z,17.40
2023-08-17T23:20:19.572Z,18.58
2023-08-17T23:22:46.088Z,18.27
2023-08-17T23:25:12.646Z,17.60
2023-08-17T23:27:39.827Z,22.90
2023-08-17T23:30:07.654Z,21.55
2023-08-17T23:32:35.786Z,20.13
2023-08-17T23:35:02.557Z,25.48
2023-08-17T23:37:29.231Z,23.05
2023-08-17T23:39:56.081Z,23.83
2023-08-17T23:42:22.621Z,28.85
2023-08-17T23:44:49.155Z,25.15
2023-08-17T23:47:15.690Z,29.52
2023-08-17T23:49:43.545Z,27.25
2023-08-17T23:52:10.103Z,25.52
2023-08-17T23:54:36.708Z,25.55
2023-08-17T23:57:03.316Z,27.15
2023-08-17T23:59:29.988Z,25.92
